Paden, Mississippi
Current Conditions -  °F | °C
As of 2:55 AM on Saturday 29 Nov 2014 (Local Time) from KCRX Reporting Station
Overcast Overcast  
Wind Chill: 39°   Ceiling: 4100
Heat Index: 45°   Visibility: NA
Dew Point: 28°   Wind: 10mph
Humidity: 53%   Direction: 170°S
Pressure: 30.13"   Gusts: NA
Location:  34.6475°N, 88.2106°W
Report Text: KCRX 290855Z AUTO 17009KT OVC041 07/M02 A3013 RMK AO2
Loading
Personal Weather Stations






























Interactive Weather Map New forecast layout! Learn more

10-Day Weather Forecast

Advertisements
Track Severe Weather on mobile